ELLX/LUX METAR and TAF weather

Enter ICAO airport designator
Station Type Date Time Source
ELLX METAR 2022/01/29 00:50 UTC NOAA

ELLX 290050Z AUTO 23009KT //// R24/1200N // VV002 02/02 Q1032 NOSIG


Station Type Date Time Source
ELLX Decoded METAR 2022/01/29 00:50 UTC NOAA

Luxembourg / Luxembourg, Luxembourg (ELLX) 49-37N 006-13E 379M
Jan 28, 2022 - 07:50 PM EST / 2022.01.29 0050 UTC
Wind: from the SW (230 degrees) at 10 MPH (9 KT):0
Sky conditions: obscured
Temperature: 35 F (2 C)
Windchill: 26 F (-3 C):1
Dew Point: 35 F (2 C)
Relative Humidity: 100%
Pressure (altimeter): 30.47 in. Hg (1032 hPa)
ob: ELLX 290050Z AUTO 23009KT //// R24/1200N // VV002 02/02 Q1032 NOSIG
cycle: 1

Station Type Date Time Source
ELLX TAF 2022/01/28 18:27 UTC NOAA

TAF ELLX 281700Z 2818/2924 24009KT 8000 SCT005 BKN007
BECMG 2820/2822 3000 BR BKN004
TEMPO 2903/2912 1200 -DZ PRFG OVC002
TEMPO 2912/2921 5000 -RADZ
BECMG 2921/2923 30008KT 9000 NSW SCT006 BKN012

Example: see airport list